sensor_id;sensor_type;location;lat;lon;timestamp;P1;durP1;ratioP1;P2;durP2;ratioP2
27740;SDS011;15134;48.768;9.184;2023-07-20T00:00:53;968.33;;;874.93;;
27740;SDS011;15134;48.768;9.184;2023-07-20T00:03:19;967.65;;;874.25;;
27740;SDS011;15134;48.768;9.184;2023-07-20T00:05:48;967.03;;;873.63;;
27740;SDS011;15134;48.768;9.184;2023-07-20T00:08:15;970.38;;;876.63;;
27740;SDS011;15134;48.768;9.184;2023-07-20T00:10:41;964.53;;;871.13;;
27740;SDS011;15134;48.768;9.184;2023-07-20T00:13:07;970.55;;;876.85;;
27740;SDS011;15134;48.768;9.184;2023-07-20T00:15:33;968.90;;;875.30;;
27740;SDS011;15134;48.768;9.184;2023-07-20T00:17:59;963.90;;;870.35;;
27740;SDS011;15134;48.768;9.184;2023-07-20T00:20:25;966.10;;;872.43;;
27740;SDS011;15134;48.768;9.184;2023-07-20T00:22:51;962.83;;;869.40;;
27740;SDS011;15134;48.768;9.184;2023-07-20T00:25:17;967.07;;;873.47;;
27740;SDS011;15134;48.768;9.184;2023-07-20T00:27:43;963.78;;;870.13;;
27740;SDS011;15134;48.768;9.184;2023-07-20T00:30:09;965.85;;;872.25;;
27740;SDS011;15134;48.768;9.184;2023-07-20T00:32:35;965.40;;;871.70;;
27740;SDS011;15134;48.768;9.184;2023-07-20T00:35:01;958.22;;;865.13;;
27740;SDS011;15134;48.768;9.184;2023-07-20T00:37:28;955.25;;;862.20;;
27740;SDS011;15134;48.768;9.184;2023-07-20T00:39:54;960.28;;;867.10;;
27740;SDS011;15134;48.768;9.184;2023-07-20T00:42:20;963.53;;;870.15;;
27740;SDS011;15134;48.768;9.184;2023-07-20T00:44:45;962.70;;;869.20;;
27740;SDS011;15134;48.768;9.184;2023-07-20T00:47:11;958.53;;;865.27;;
27740;SDS011;15134;48.768;9.184;2023-07-20T00:49:37;962.33;;;868.97;;
27740;SDS011;15134;48.768;9.184;2023-07-20T00:52:03;961.72;;;868.10;;
27740;SDS011;15134;48.768;9.184;2023-07-20T00:54:32;964.00;;;870.45;;
27740;SDS011;15134;48.768;9.184;2023-07-20T00:56:59;961.22;;;867.53;;
27740;SDS011;15134;48.768;9.184;2023-07-20T00:59:27;963.67;;;870.00;;
27740;SDS011;15134;48.768;9.184;2023-07-20T01:01:54;962.28;;;868.75;;
27740;SDS011;15134;48.768;9.184;2023-07-20T01:04:20;963.50;;;869.78;;
27740;SDS011;15134;48.768;9.184;2023-07-20T01:09:26;958.85;;;865.47;;
27740;SDS011;15134;48.768;9.184;2023-07-20T01:12:02;955.58;;;862.40;;
27740;SDS011;15134;48.768;9.184;2023-07-20T01:14:34;959.13;;;865.33;;
27740;SDS011;15134;48.768;9.184;2023-07-20T01:17:00;960.13;;;866.45;;
27740;SDS011;15134;48.768;9.184;2023-07-20T01:19:26;963.93;;;870.13;;
27740;SDS011;15134;48.768;9.184;2023-07-20T01:22:09;960.87;;;867.27;;
27740;SDS011;15134;48.768;9.184;2023-07-20T01:32:57;959.22;;;865.45;;
27740;SDS011;15134;48.768;9.184;2023-07-20T01:35:25;954.80;;;861.10;;
27740;SDS011;15134;48.768;9.184;2023-07-20T01:37:54;961.80;;;867.97;;
27740;SDS011;15134;48.768;9.184;2023-07-20T01:40:22;957.13;;;863.45;;
27740;SDS011;15134;48.768;9.184;2023-07-20T01:42:51;953.67;;;860.17;;
27740;SDS011;15134;48.768;9.184;2023-07-20T01:45:18;958.08;;;864.15;;
27740;SDS011;15134;48.768;9.184;2023-07-20T01:47:44;961.53;;;867.70;;
27740;SDS011;15134;48.768;9.184;2023-07-20T01:50:10;957.90;;;864.40;;
27740;SDS011;15134;48.768;9.184;2023-07-20T01:52:36;951.83;;;858.42;;
27740;SDS011;15134;48.768;9.184;2023-07-20T01:55:02;960.13;;;866.10;;
27740;SDS011;15134;48.768;9.184;2023-07-20T01:57:30;956.70;;;862.90;;
27740;SDS011;15134;48.768;9.184;2023-07-20T01:59:56;952.67;;;859.17;;
27740;SDS011;15134;48.768;9.184;2023-07-20T02:02:23;951.28;;;857.55;;
27740;SDS011;15134;48.768;9.184;2023-07-20T02:04:51;953.17;;;859.13;;
27740;SDS011;15134;48.768;9.184;2023-07-20T02:07:17;951.35;;;857.78;;
27740;SDS011;15134;48.768;9.184;2023-07-20T02:09:43;951.72;;;858.22;;
27740;SDS011;15134;48.768;9.184;2023-07-20T02:12:09;955.28;;;861.72;;
27740;SDS011;15134;48.768;9.184;2023-07-20T02:14:34;947.35;;;854.15;;
27740;SDS011;15134;48.768;9.184;2023-07-20T02:17:00;950.13;;;856.53;;
27740;SDS011;15134;48.768;9.184;2023-07-20T02:19:27;947.83;;;854.42;;
27740;SDS011;15134;48.768;9.184;2023-07-20T02:21:55;945.58;;;852.20;;
27740;SDS011;15134;48.768;9.184;2023-07-20T02:24:20;941.60;;;848.47;;
27740;SDS011;15134;48.768;9.184;2023-07-20T02:26:46;941.15;;;848.05;;
27740;SDS011;15134;48.768;9.184;2023-07-20T02:29:12;935.30;;;842.47;;
27740;SDS011;15134;48.768;9.184;2023-07-20T02:31:37;944.60;;;851.27;;
27740;SDS011;15134;48.768;9.184;2023-07-20T02:34:05;941.67;;;848.47;;
27740;SDS011;15134;48.768;9.184;2023-07-20T02:36:31;945.22;;;851.88;;
27740;SDS011;15134;48.768;9.184;2023-07-20T02:39:00;939.45;;;846.38;;
27740;SDS011;15134;48.768;9.184;2023-07-20T02:41:30;939.63;;;846.40;;
27740;SDS011;15134;48.768;9.184;2023-07-20T02:43:56;934.70;;;841.97;;
27740;SDS011;15134;48.768;9.184;2023-07-20T02:46:22;935.10;;;841.63;;
27740;SDS011;15134;48.768;9.184;2023-07-20T02:48:47;933.72;;;839.88;;
27740;SDS011;15134;48.768;9.184;2023-07-20T02:51:13;942.97;;;848.45;;
27740;SDS011;15134;48.768;9.184;2023-07-20T02:53:39;938.47;;;844.67;;
27740;SDS011;15134;48.768;9.184;2023-07-20T02:56:04;937.72;;;844.45;;
27740;SDS011;15134;48.768;9.184;2023-07-20T02:58:30;928.27;;;835.50;;
27740;SDS011;15134;48.768;9.184;2023-07-20T03:00:56;928.13;;;835.33;;
27740;SDS011;15134;48.768;9.184;2023-07-20T03:03:21;925.00;;;832.10;;
27740;SDS011;15134;48.768;9.184;2023-07-20T03:05:48;930.45;;;837.33;;
27740;SDS011;15134;48.768;9.184;2023-07-20T03:08:19;929.50;;;836.75;;
27740;SDS011;15134;48.768;9.184;2023-07-20T03:10:45;922.75;;;830.17;;
27740;SDS011;15134;48.768;9.184;2023-07-20T03:13:11;927.78;;;834.80;;
27740;SDS011;15134;48.768;9.184;2023-07-20T03:15:38;928.95;;;835.92;;
27740;SDS011;15134;48.768;9.184;2023-07-20T03:18:03;931.38;;;838.33;;
27740;SDS011;15134;48.768;9.184;2023-07-20T03:20:29;918.30;;;825.83;;
27740;SDS011;15134;48.768;9.184;2023-07-20T03:22:56;920.53;;;827.90;;
27740;SDS011;15134;48.768;9.184;2023-07-20T03:25:22;918.15;;;825.50;;
27740;SDS011;15134;48.768;9.184;2023-07-20T03:27:48;913.47;;;821.03;;
27740;SDS011;15134;48.768;9.184;2023-07-20T03:30:13;920.53;;;827.88;;
27740;SDS011;15134;48.768;9.184;2023-07-20T03:32:39;922.75;;;829.85;;
27740;SDS011;15134;48.768;9.184;2023-07-20T03:35:05;920.60;;;827.87;;
27740;SDS011;15134;48.768;9.184;2023-07-20T03:37:32;923.58;;;830.58;;
27740;SDS011;15134;48.768;9.184;2023-07-20T03:40:00;921.38;;;828.72;;
27740;SDS011;15134;48.768;9.184;2023-07-20T03:42:26;920.17;;;827.45;;
27740;SDS011;15134;48.768;9.184;2023-07-20T03:44:52;918.13;;;825.80;;
27740;SDS011;15134;48.768;9.184;2023-07-20T03:47:17;916.10;;;823.73;;
27740;SDS011;15134;48.768;9.184;2023-07-20T03:49:43;916.00;;;823.70;;
27740;SDS011;15134;48.768;9.184;2023-07-20T03:52:09;915.22;;;822.95;;
27740;SDS011;15134;48.768;9.184;2023-07-20T03:54:35;912.55;;;820.35;;
27740;SDS011;15134;48.768;9.184;2023-07-20T03:57:01;914.93;;;822.83;;
27740;SDS011;15134;48.768;9.184;2023-07-20T03:59:27;914.73;;;822.80;;
27740;SDS011;15134;48.768;9.184;2023-07-20T04:01:52;913.70;;;821.80;;
27740;SDS011;15134;48.768;9.184;2023-07-20T04:04:18;917.93;;;825.63;;
27740;SDS011;15134;48.768;9.184;2023-07-20T04:06:44;923.67;;;831.08;;
27740;SDS011;15134;48.768;9.184;2023-07-20T04:09:10;928.05;;;835.42;;
27740;SDS011;15134;48.768;9.184;2023-07-20T04:11:37;923.22;;;830.63;;
27740;SDS011;15134;48.768;9.184;2023-07-20T04:14:03;923.88;;;831.33;;
27740;SDS011;15134;48.768;9.184;2023-07-20T04:16:29;925.37;;;832.97;;
27740;SDS011;15134;48.768;9.184;2023-07-20T04:18:56;928.70;;;836.00;;
27740;SDS011;15134;48.768;9.184;2023-07-20T04:21:22;914.42;;;822.25;;
27740;SDS011;15134;48.768;9.184;2023-07-20T04:23:48;924.45;;;832.08;;
27740;SDS011;15134;48.768;9.184;2023-07-20T04:26:14;928.73;;;836.13;;
27740;SDS011;15134;48.768;9.184;2023-07-20T04:28:40;921.43;;;829.10;;
27740;SDS011;15134;48.768;9.184;2023-07-20T04:31:13;920.17;;;827.88;;
27740;SDS011;15134;48.768;9.184;2023-07-20T04:33:39;923.15;;;830.67;;
27740;SDS011;15134;48.768;9.184;2023-07-20T04:36:05;923.78;;;831.40;;
27740;SDS011;15134;48.768;9.184;2023-07-20T04:38:34;931.00;;;838.03;;
27740;SDS011;15134;48.768;9.184;2023-07-20T04:41:16;932.05;;;838.78;;
27740;SDS011;15134;48.768;9.184;2023-07-20T04:43:45;939.65;;;843.72;;
27740;SDS011;15134;48.768;9.184;2023-07-20T04:46:13;938.33;;;844.72;;
27740;SDS011;15134;48.768;9.184;2023-07-20T04:48:40;934.70;;;841.17;;
27740;SDS011;15134;48.768;9.184;2023-07-20T04:51:06;944.13;;;849.30;;
27740;SDS011;15134;48.768;9.184;2023-07-20T04:53:32;950.22;;;855.85;;
27740;SDS011;15134;48.768;9.184;2023-07-20T04:55:58;948.97;;;854.72;;
27740;SDS011;15134;48.768;9.184;2023-07-20T04:58:24;952.67;;;858.85;;
27740;SDS011;15134;48.768;9.184;2023-07-20T05:00:51;947.33;;;853.42;;
27740;SDS011;15134;48.768;9.184;2023-07-20T05:03:19;958.15;;;864.28;;
27740;SDS011;15134;48.768;9.184;2023-07-20T05:05:46;960.38;;;866.45;;
27740;SDS011;15134;48.768;9.184;2023-07-20T05:08:12;971.25;;;876.83;;
27740;SDS011;15134;48.768;9.184;2023-07-20T05:10:38;971.10;;;876.78;;
27740;SDS011;15134;48.768;9.184;2023-07-20T05:13:04;979.70;;;885.00;;
27740;SDS011;15134;48.768;9.184;2023-07-20T05:15:29;981.00;;;886.38;;
27740;SDS011;15134;48.768;9.184;2023-07-20T05:17:58;984.93;;;890.07;;
27740;SDS011;15134;48.768;9.184;2023-07-20T05:20:24;996.78;;;900.97;;
27740;SDS011;15134;48.768;9.184;2023-07-20T05:22:50;995.20;;;898.33;;
27740;SDS011;15134;48.768;9.184;2023-07-20T05:25:16;990.72;;;895.67;;
27740;SDS011;15134;48.768;9.184;2023-07-20T05:27:43;1002.23;;;906.80;;
27740;SDS011;15134;48.768;9.184;2023-07-20T05:30:10;997.93;;;902.53;;
27740;SDS011;15134;48.768;9.184;2023-07-20T05:32:36;998.40;;;903.03;;
27740;SDS011;15134;48.768;9.184;2023-07-20T05:35:02;984.70;;;890.27;;
27740;SDS011;15134;48.768;9.184;2023-07-20T05:37:28;989.42;;;894.83;;
27740;SDS011;15134;48.768;9.184;2023-07-20T05:39:53;991.28;;;896.33;;
27740;SDS011;15134;48.768;9.184;2023-07-20T05:42:19;991.00;;;896.25;;
27740;SDS011;15134;48.768;9.184;2023-07-20T05:44:45;985.13;;;890.63;;
27740;SDS011;15134;48.768;9.184;2023-07-20T05:47:12;989.08;;;894.40;;
27740;SDS011;15134;48.768;9.184;2023-07-20T05:49:38;995.57;;;900.47;;
27740;SDS011;15134;48.768;9.184;2023-07-20T05:52:03;996.77;;;901.70;;
27740;SDS011;15134;48.768;9.184;2023-07-20T05:54:29;997.63;;;902.72;;
27740;SDS011;15134;48.768;9.184;2023-07-20T05:56:55;1006.65;;;911.33;;
27740;SDS011;15134;48.768;9.184;2023-07-20T05:59:21;1005.53;;;910.10;;
27740;SDS011;15134;48.768;9.184;2023-07-20T06:01:48;1008.65;;;913.22;;
27740;SDS011;15134;48.768;9.184;2023-07-20T06:04:15;1007.72;;;912.53;;
27740;SDS011;15134;48.768;9.184;2023-07-20T06:06:40;1006.13;;;911.03;;
27740;SDS011;15134;48.768;9.184;2023-07-20T06:09:07;1003.95;;;908.95;;
27740;SDS011;15134;48.768;9.184;2023-07-20T06:11:37;1010.55;;;915.17;;
27740;SDS011;15134;48.768;9.184;2023-07-20T06:14:03;1011.53;;;916.20;;
27740;SDS011;15134;48.768;9.184;2023-07-20T06:16:29;1009.75;;;914.55;;
27740;SDS011;15134;48.768;9.184;2023-07-20T06:18:55;1012.35;;;916.88;;
27740;SDS011;15134;48.768;9.184;2023-07-20T06:21:21;1015.55;;;919.97;;
27740;SDS011;15134;48.768;9.184;2023-07-20T06:23:47;1012.80;;;917.50;;
27740;SDS011;15134;48.768;9.184;2023-07-20T06:26:15;1020.28;;;924.60;;
27740;SDS011;15134;48.768;9.184;2023-07-20T06:28:41;1019.67;;;924.08;;
27740;SDS011;15134;48.768;9.184;2023-07-20T06:31:07;1022.80;;;927.03;;
27740;SDS011;15134;48.768;9.184;2023-07-20T06:33:33;1037.53;;;941.40;;
27740;SDS011;15134;48.768;9.184;2023-07-20T06:35:59;1060.85;;;963.78;;
27740;SDS011;15134;48.768;9.184;2023-07-20T06:38:25;1071.70;;;974.13;;
27740;SDS011;15134;48.768;9.184;2023-07-20T06:40:51;1088.40;;;990.50;;
27740;SDS011;15134;48.768;9.184;2023-07-20T06:43:17;1114.50;;;999.90;;
27740;SDS011;15134;48.768;9.184;2023-07-20T06:45:43;1133.78;;;999.90;;
27740;SDS011;15134;48.768;9.184;2023-07-20T06:48:09;1155.53;;;999.90;;
27740;SDS011;15134;48.768;9.184;2023-07-20T06:50:34;1172.65;;;999.90;;
27740;SDS011;15134;48.768;9.184;2023-07-20T06:53:02;1187.30;;;999.90;;
27740;SDS011;15134;48.768;9.184;2023-07-20T06:55:30;1206.90;;;999.90;;
27740;SDS011;15134;48.768;9.184;2023-07-20T06:57:56;1224.65;;;999.90;;
27740;SDS011;15134;48.768;9.184;2023-07-20T07:00:22;1234.68;;;999.90;;
27740;SDS011;15134;48.768;9.184;2023-07-20T07:02:47;1237.75;;;999.90;;
27740;SDS011;15134;48.768;9.184;2023-07-20T07:05:13;1241.30;;;999.90;;
27740;SDS011;15134;48.768;9.184;2023-07-20T07:07:40;1236.80;;;999.90;;
27740;SDS011;15134;48.768;9.184;2023-07-20T07:10:07;1236.00;;;999.90;;
27740;SDS011;15134;48.768;9.184;2023-07-20T07:12:33;1242.45;;;999.90;;
27740;SDS011;15134;48.768;9.184;2023-07-20T07:15:03;1249.10;;;999.90;;
27740;SDS011;15134;48.768;9.184;2023-07-20T07:17:32;1254.32;;;999.90;;
27740;SDS011;15134;48.768;9.184;2023-07-20T07:19:58;1260.30;;;999.90;;
27740;SDS011;15134;48.768;9.184;2023-07-20T07:22:24;1262.73;;;999.90;;
27740;SDS011;15134;48.768;9.184;2023-07-20T07:24:50;1269.32;;;999.90;;
27740;SDS011;15134;48.768;9.184;2023-07-20T07:27:16;1275.43;;;999.90;;
27740;SDS011;15134;48.768;9.184;2023-07-20T07:29:42;1280.97;;;999.90;;
27740;SDS011;15134;48.768;9.184;2023-07-20T07:32:12;1282.93;;;999.90;;
27740;SDS011;15134;48.768;9.184;2023-07-20T07:34:38;1282.57;;;999.90;;
27740;SDS011;15134;48.768;9.184;2023-07-20T07:37:04;1290.10;;;999.90;;
27740;SDS011;15134;48.768;9.184;2023-07-20T07:39:30;1289.28;;;999.90;;
27740;SDS011;15134;48.768;9.184;2023-07-20T07:41:56;1287.50;;;999.90;;
27740;SDS011;15134;48.768;9.184;2023-07-20T07:44:22;1289.70;;;999.90;;
27740;SDS011;15134;48.768;9.184;2023-07-20T07:46:51;1292.13;;;999.90;;
27740;SDS011;15134;48.768;9.184;2023-07-20T07:49:18;1293.75;;;999.90;;
27740;SDS011;15134;48.768;9.184;2023-07-20T07:51:44;1292.25;;;999.90;;
27740;SDS011;15134;48.768;9.184;2023-07-20T07:54:10;1289.88;;;999.90;;
27740;SDS011;15134;48.768;9.184;2023-07-20T07:56:36;1293.45;;;999.90;;
27740;SDS011;15134;48.768;9.184;2023-07-20T07:59:01;1294.32;;;999.90;;
27740;SDS011;15134;48.768;9.184;2023-07-20T08:01:28;1292.18;;;999.90;;
27740;SDS011;15134;48.768;9.184;2023-07-20T08:03:57;1285.43;;;999.90;;
27740;SDS011;15134;48.768;9.184;2023-07-20T08:06:23;1284.40;;;999.90;;
27740;SDS011;15134;48.768;9.184;2023-07-20T08:08:50;1283.75;;;999.90;;
27740;SDS011;15134;48.768;9.184;2023-07-20T08:11:16;1284.85;;;999.90;;
27740;SDS011;15134;48.768;9.184;2023-07-20T08:13:43;1283.30;;;999.90;;
27740;SDS011;15134;48.768;9.184;2023-07-20T08:16:09;1280.65;;;999.90;;
27740;SDS011;15134;48.768;9.184;2023-07-20T08:18:35;1276.57;;;999.90;;
27740;SDS011;15134;48.768;9.184;2023-07-20T08:21:00;1271.80;;;999.90;;
27740;SDS011;15134;48.768;9.184;2023-07-20T08:23:28;1271.50;;;999.90;;
27740;SDS011;15134;48.768;9.184;2023-07-20T08:25:54;1270.68;;;999.90;;
27740;SDS011;15134;48.768;9.184;2023-07-20T08:28:24;1267.60;;;999.90;;
27740;SDS011;15134;48.768;9.184;2023-07-20T08:30:51;1264.07;;;999.90;;
27740;SDS011;15134;48.768;9.184;2023-07-20T08:33:18;1258.65;;;999.90;;
27740;SDS011;15134;48.768;9.184;2023-07-20T08:35:48;1251.57;;;999.90;;
27740;SDS011;15134;48.768;9.184;2023-07-20T08:38:14;1250.73;;;999.90;;
27740;SDS011;15134;48.768;9.184;2023-07-20T08:40:42;1241.80;;;999.90;;
27740;SDS011;15134;48.768;9.184;2023-07-20T08:43:12;1236.15;;;999.90;;
27740;SDS011;15134;48.768;9.184;2023-07-20T08:45:39;1236.20;;;999.90;;
27740;SDS011;15134;48.768;9.184;2023-07-20T08:48:06;1236.32;;;999.90;;
27740;SDS011;15134;48.768;9.184;2023-07-20T08:50:33;1227.68;;;999.90;;
27740;SDS011;15134;48.768;9.184;2023-07-20T08:52:59;1217.80;;;999.90;;
27740;SDS011;15134;48.768;9.184;2023-07-20T08:55:26;1203.03;;;999.90;;
27740;SDS011;15134;48.768;9.184;2023-07-20T08:57:57;1186.95;;;999.90;;
27740;SDS011;15134;48.768;9.184;2023-07-20T09:00:24;1170.90;;;999.90;;
27740;SDS011;15134;48.768;9.184;2023-07-20T09:02:51;1156.65;;;999.90;;
27740;SDS011;15134;48.768;9.184;2023-07-20T09:05:19;1163.22;;;999.90;;
27740;SDS011;15134;48.768;9.184;2023-07-20T09:07:46;1184.95;;;999.90;;
27740;SDS011;15134;48.768;9.184;2023-07-20T09:10:12;1207.10;;;999.90;;
27740;SDS011;15134;48.768;9.184;2023-07-20T09:12:38;1226.18;;;999.90;;
27740;SDS011;15134;48.768;9.184;2023-07-20T09:15:05;1235.25;;;999.90;;
27740;SDS011;15134;48.768;9.184;2023-07-20T09:17:31;1243.53;;;999.90;;
27740;SDS011;15134;48.768;9.184;2023-07-20T09:19:58;1243.80;;;999.90;;
27740;SDS011;15134;48.768;9.184;2023-07-20T09:22:29;1236.78;;;999.90;;
27740;SDS011;15134;48.768;9.184;2023-07-20T09:24:55;1234.07;;;999.90;;
27740;SDS011;15134;48.768;9.184;2023-07-20T09:27:22;1236.10;;;999.90;;
27740;SDS011;15134;48.768;9.184;2023-07-20T09:29:54;1241.20;;;999.90;;
27740;SDS011;15134;48.768;9.184;2023-07-20T09:32:22;1243.85;;;999.90;;
27740;SDS011;15134;48.768;9.184;2023-07-20T09:34:49;1233.97;;;999.90;;
27740;SDS011;15134;48.768;9.184;2023-07-20T09:37:19;1228.57;;;999.90;;
27740;SDS011;15134;48.768;9.184;2023-07-20T09:39:46;1217.70;;;999.90;;
27740;SDS011;15134;48.768;9.184;2023-07-20T09:42:12;1219.50;;;999.90;;
27740;SDS011;15134;48.768;9.184;2023-07-20T09:44:39;1228.22;;;999.90;;
27740;SDS011;15134;48.768;9.184;2023-07-20T09:47:06;1222.83;;;999.90;;
27740;SDS011;15134;48.768;9.184;2023-07-20T09:49:32;1214.45;;;999.90;;
27740;SDS011;15134;48.768;9.184;2023-07-20T09:51:57;1209.60;;;999.90;;
27740;SDS011;15134;48.768;9.184;2023-07-20T09:54:26;1206.20;;;999.90;;
27740;SDS011;15134;48.768;9.184;2023-07-20T09:56:53;1213.10;;;999.90;;
27740;SDS011;15134;48.768;9.184;2023-07-20T09:59:20;1220.63;;;999.90;;
27740;SDS011;15134;48.768;9.184;2023-07-20T10:01:46;1224.32;;;999.90;;
27740;SDS011;15134;48.768;9.184;2023-07-20T10:04:14;1211.30;;;999.90;;
27740;SDS011;15134;48.768;9.184;2023-07-20T10:06:46;1207.07;;;999.90;;
27740;SDS011;15134;48.768;9.184;2023-07-20T10:09:13;1202.95;;;999.90;;
27740;SDS011;15134;48.768;9.184;2023-07-20T10:11:43;1191.25;;;999.90;;
27740;SDS011;15134;48.768;9.184;2023-07-20T10:14:11;1177.45;;;999.90;;
27740;SDS011;15134;48.768;9.184;2023-07-20T10:16:40;1169.20;;;999.90;;
27740;SDS011;15134;48.768;9.184;2023-07-20T10:19:23;1148.47;;;999.90;;
27740;SDS011;15134;48.768;9.184;2023-07-20T10:22:00;1130.55;;;999.90;;
27740;SDS011;15134;48.768;9.184;2023-07-20T10:24:32;1124.35;;;999.90;;
27740;SDS011;15134;48.768;9.184;2023-07-20T10:27:00;1104.60;;;999.90;;
27740;SDS011;15134;48.768;9.184;2023-07-20T10:29:26;1095.35;;;997.72;;
27740;SDS011;15134;48.768;9.184;2023-07-20T10:31:53;1078.60;;;981.40;;
27740;SDS011;15134;48.768;9.184;2023-07-20T10:34:20;1068.72;;;971.97;;
27740;SDS011;15134;48.768;9.184;2023-07-20T10:36:47;1058.82;;;962.45;;
27740;SDS011;15134;48.768;9.184;2023-07-20T10:39:26;1050.07;;;954.08;;
27740;SDS011;15134;48.768;9.184;2023-07-20T10:42:08;1041.90;;;946.33;;
27740;SDS011;15134;48.768;9.184;2023-07-20T10:44:38;1043.22;;;947.72;;
27740;SDS011;15134;48.768;9.184;2023-07-20T10:47:09;1037.17;;;942.07;;
27740;SDS011;15134;48.768;9.184;2023-07-20T10:49:39;1039.15;;;943.65;;
27740;SDS011;15134;48.768;9.184;2023-07-20T10:52:36;1038.78;;;943.15;;
27740;SDS011;15134;48.768;9.184;2023-07-20T10:55:15;1040.03;;;944.63;;
27740;SDS011;15134;48.768;9.184;2023-07-20T10:57:42;1039.68;;;944.17;;
27740;SDS011;15134;48.768;9.184;2023-07-20T11:00:18;1039.60;;;944.10;;
27740;SDS011;15134;48.768;9.184;2023-07-20T11:02:48;1037.82;;;942.72;;
27740;SDS011;15134;48.768;9.184;2023-07-20T11:08:00;1049.28;;;953.50;;
27740;SDS011;15134;48.768;9.184;2023-07-20T11:10:29;1041.97;;;946.47;;
27740;SDS011;15134;48.768;9.184;2023-07-20T11:13:16;1038.40;;;942.83;;
27740;SDS011;15134;48.768;9.184;2023-07-20T11:16:23;1040.95;;;945.78;;
27740;SDS011;15134;48.768;9.184;2023-07-20T11:18:30;1043.78;;;948.47;;
27740;SDS011;15134;48.768;9.184;2023-07-20T11:20:59;1038.57;;;943.47;;
27740;SDS011;15134;48.768;9.184;2023-07-20T11:23:25;1041.00;;;945.65;;
27740;SDS011;15134;48.768;9.184;2023-07-20T11:25:51;1040.88;;;945.45;;
27740;SDS011;15134;48.768;9.184;2023-07-20T11:28:17;1036.63;;;941.42;;
27740;SDS011;15134;48.768;9.184;2023-07-20T11:30:42;1041.83;;;946.30;;
27740;SDS011;15134;48.768;9.184;2023-07-20T11:33:08;1041.38;;;945.80;;
27740;SDS011;15134;48.768;9.184;2023-07-20T11:35:44;1041.72;;;946.53;;
27740;SDS011;15134;48.768;9.184;2023-07-20T11:38:13;1044.35;;;948.88;;
27740;SDS011;15134;48.768;9.184;2023-07-20T11:40:45;1040.30;;;945.00;;
27740;SDS011;15134;48.768;9.184;2023-07-20T11:43:11;1039.07;;;943.67;;
27740;SDS011;15134;48.768;9.184;2023-07-20T11:45:38;1042.80;;;947.38;;
27740;SDS011;15134;48.768;9.184;2023-07-20T11:48:04;1040.68;;;945.28;;
27740;SDS011;15134;48.768;9.184;2023-07-20T11:50:31;1038.23;;;942.73;;
27740;SDS011;15134;48.768;9.184;2023-07-20T11:52:57;1039.38;;;943.90;;
27740;SDS011;15134;48.768;9.184;2023-07-20T11:55:23;1030.10;;;934.80;;
27740;SDS011;15134;48.768;9.184;2023-07-20T11:58:04;1032.83;;;937.50;;
27740;SDS011;15134;48.768;9.184;2023-07-20T12:00:31;1031.25;;;936.03;;
27740;SDS011;15134;48.768;9.184;2023-07-20T12:02:58;1025.53;;;930.75;;
27740;SDS011;15134;48.768;9.184;2023-07-20T12:05:24;1021.83;;;926.92;;
27740;SDS011;15134;48.768;9.184;2023-07-20T12:07:51;1021.70;;;926.55;;
27740;SDS011;15134;48.768;9.184;2023-07-20T12:10:22;1012.15;;;917.65;;
27740;SDS011;15134;48.768;9.184;2023-07-20T12:12:52;1023.53;;;928.50;;
27740;SDS011;15134;48.768;9.184;2023-07-20T12:17:51;1018.28;;;923.58;;
27740;SDS011;15134;48.768;9.184;2023-07-20T12:22:58;1023.42;;;928.33;;
27740;SDS011;15134;48.768;9.184;2023-07-20T12:25:36;1018.70;;;924.17;;
27740;SDS011;15134;48.768;9.184;2023-07-20T12:28:10;1017.45;;;922.75;;
27740;SDS011;15134;48.768;9.184;2023-07-20T12:30:40;1015.83;;;921.20;;
27740;SDS011;15134;48.768;9.184;2023-07-20T12:33:08;1023.67;;;928.83;;
27740;SDS011;15134;48.768;9.184;2023-07-20T12:35:34;1021.63;;;926.92;;
27740;SDS011;15134;48.768;9.184;2023-07-20T12:38:00;1027.75;;;932.50;;
27740;SDS011;15134;48.768;9.184;2023-07-20T12:40:26;1025.55;;;930.58;;
27740;SDS011;15134;48.768;9.184;2023-07-20T12:42:52;1021.80;;;927.15;;
27740;SDS011;15134;48.768;9.184;2023-07-20T12:45:18;1012.95;;;918.45;;
27740;SDS011;15134;48.768;9.184;2023-07-20T12:47:44;1010.95;;;916.63;;
27740;SDS011;15134;48.768;9.184;2023-07-20T12:50:10;1006.22;;;911.92;;
27740;SDS011;15134;48.768;9.184;2023-07-20T12:52:37;1012.10;;;917.67;;
27740;SDS011;15134;48.768;9.184;2023-07-20T12:55:07;1015.03;;;920.28;;
27740;SDS011;15134;48.768;9.184;2023-07-20T12:57:34;1008.42;;;913.80;;
27740;SDS011;15134;48.768;9.184;2023-07-20T13:00:01;1015.38;;;920.78;;
27740;SDS011;15134;48.768;9.184;2023-07-20T13:02:32;1015.83;;;921.15;;
27740;SDS011;15134;48.768;9.184;2023-07-20T13:04:58;1009.47;;;914.90;;
27740;SDS011;15134;48.768;9.184;2023-07-20T13:07:30;1009.90;;;915.40;;
27740;SDS011;15134;48.768;9.184;2023-07-20T13:09:57;1000.80;;;906.60;;
27740;SDS011;15134;48.768;9.184;2023-07-20T13:12:25;1004.72;;;910.42;;
27740;SDS011;15134;48.768;9.184;2023-07-20T13:14:55;1010.85;;;916.25;;
27740;SDS011;15134;48.768;9.184;2023-07-20T13:17:22;1010.67;;;916.08;;
27740;SDS011;15134;48.768;9.184;2023-07-20T13:19:48;1015.03;;;920.40;;
27740;SDS011;15134;48.768;9.184;2023-07-20T13:22:14;1014.37;;;919.77;;
27740;SDS011;15134;48.768;9.184;2023-07-20T13:24:40;1010.63;;;916.23;;
27740;SDS011;15134;48.768;9.184;2023-07-20T13:27:06;1026.45;;;931.25;;
27740;SDS011;15134;48.768;9.184;2023-07-20T13:29:32;1028.37;;;933.00;;
27740;SDS011;15134;48.768;9.184;2023-07-20T13:31:58;1035.15;;;939.58;;
27740;SDS011;15134;48.768;9.184;2023-07-20T13:34:25;1033.32;;;937.83;;
27740;SDS011;15134;48.768;9.184;2023-07-20T13:36:51;1037.28;;;941.63;;
27740;SDS011;15134;48.768;9.184;2023-07-20T13:39:17;1038.47;;;942.92;;
27740;SDS011;15134;48.768;9.184;2023-07-20T13:41:43;1033.50;;;938.10;;
27740;SDS011;15134;48.768;9.184;2023-07-20T13:44:10;1032.45;;;937.33;;
27740;SDS011;15134;48.768;9.184;2023-07-20T13:46:35;1025.67;;;930.80;;
27740;SDS011;15134;48.768;9.184;2023-07-20T13:49:01;1018.15;;;923.53;;
27740;SDS011;15134;48.768;9.184;2023-07-20T13:51:27;1013.58;;;919.13;;
27740;SDS011;15134;48.768;9.184;2023-07-20T13:53:53;1010.27;;;915.57;;
27740;SDS011;15134;48.768;9.184;2023-07-20T13:56:18;1011.13;;;916.65;;
27740;SDS011;15134;48.768;9.184;2023-07-20T13:58:44;1011.53;;;916.55;;
27740;SDS011;15134;48.768;9.184;2023-07-20T14:01:10;1007.07;;;912.77;;
27740;SDS011;15134;48.768;9.184;2023-07-20T14:03:36;1011.50;;;917.15;;
27740;SDS011;15134;48.768;9.184;2023-07-20T14:06:02;1019.28;;;924.58;;
27740;SDS011;15134;48.768;9.184;2023-07-20T14:08:28;1022.87;;;927.57;;